sensor_id;sensor_type;location;lat;lon;timestamp;P1;durP1;ratioP1;P2;durP2;ratioP2
11510;SDS011;5812;48.864;9.190;2022-08-19T00:00:26;13.73;;;13.73;;
11510;SDS011;5812;48.864;9.190;2022-08-19T00:02:52;13.63;;;13.63;;
11510;SDS011;5812;48.864;9.190;2022-08-19T00:05:19;13.52;;;13.52;;
11510;SDS011;5812;48.864;9.190;2022-08-19T00:07:45;11.57;;;11.57;;
11510;SDS011;5812;48.864;9.190;2022-08-19T00:10:14;13.57;;;13.57;;
11510;SDS011;5812;48.864;9.190;2022-08-19T00:12:40;12.48;;;12.48;;
11510;SDS011;5812;48.864;9.190;2022-08-19T00:15:08;12.65;;;12.65;;
11510;SDS011;5812;48.864;9.190;2022-08-19T00:17:38;12.68;;;12.68;;
11510;SDS011;5812;48.864;9.190;2022-08-19T00:20:05;12.45;;;12.45;;
11510;SDS011;5812;48.864;9.190;2022-08-19T00:22:31;12.30;;;12.30;;
11510;SDS011;5812;48.864;9.190;2022-08-19T00:24:58;12.20;;;12.20;;
11510;SDS011;5812;48.864;9.190;2022-08-19T00:27:24;12.23;;;12.23;;
11510;SDS011;5812;48.864;9.190;2022-08-19T00:29:50;12.98;;;12.98;;
11510;SDS011;5812;48.864;9.190;2022-08-19T00:32:15;11.77;;;11.77;;
11510;SDS011;5812;48.864;9.190;2022-08-19T00:34:41;11.75;;;11.75;;
11510;SDS011;5812;48.864;9.190;2022-08-19T00:37:08;12.60;;;12.60;;
11510;SDS011;5812;48.864;9.190;2022-08-19T00:39:34;12.20;;;12.20;;
11510;SDS011;5812;48.864;9.190;2022-08-19T00:41:59;13.00;;;13.00;;
11510;SDS011;5812;48.864;9.190;2022-08-19T00:44:26;12.32;;;12.32;;
11510;SDS011;5812;48.864;9.190;2022-08-19T00:46:53;12.50;;;12.50;;
11510;SDS011;5812;48.864;9.190;2022-08-19T00:49:32;11.75;;;11.75;;
11510;SDS011;5812;48.864;9.190;2022-08-19T00:52:04;12.75;;;12.75;;
11510;SDS011;5812;48.864;9.190;2022-08-19T00:54:37;11.45;;;11.45;;
11510;SDS011;5812;48.864;9.190;2022-08-19T00:57:04;12.43;;;12.43;;
11510;SDS011;5812;48.864;9.190;2022-08-19T00:59:33;12.25;;;12.25;;
11510;SDS011;5812;48.864;9.190;2022-08-19T01:02:01;11.95;;;11.95;;
11510;SDS011;5812;48.864;9.190;2022-08-19T01:04:28;13.15;;;13.15;;
11510;SDS011;5812;48.864;9.190;2022-08-19T01:06:53;12.93;;;12.93;;
11510;SDS011;5812;48.864;9.190;2022-08-19T01:09:21;12.07;;;12.07;;
11510;SDS011;5812;48.864;9.190;2022-08-19T01:11:47;13.20;;;13.20;;
11510;SDS011;5812;48.864;9.190;2022-08-19T01:14:12;12.57;;;12.57;;
11510;SDS011;5812;48.864;9.190;2022-08-19T01:16:40;11.10;;;11.10;;
11510;SDS011;5812;48.864;9.190;2022-08-19T01:19:09;12.13;;;12.13;;
11510;SDS011;5812;48.864;9.190;2022-08-19T01:21:52;12.65;;;12.65;;
11510;SDS011;5812;48.864;9.190;2022-08-19T01:24:33;13.55;;;13.55;;
11510;SDS011;5812;48.864;9.190;2022-08-19T01:26:59;12.77;;;12.77;;
11510;SDS011;5812;48.864;9.190;2022-08-19T01:29:24;13.63;;;13.63;;
11510;SDS011;5812;48.864;9.190;2022-08-19T01:31:50;12.93;;;12.93;;
11510;SDS011;5812;48.864;9.190;2022-08-19T01:34:18;13.88;;;13.88;;
11510;SDS011;5812;48.864;9.190;2022-08-19T01:36:45;13.50;;;13.50;;
11510;SDS011;5812;48.864;9.190;2022-08-19T01:39:17;14.05;;;14.05;;
11510;SDS011;5812;48.864;9.190;2022-08-19T01:41:46;14.38;;;14.38;;
11510;SDS011;5812;48.864;9.190;2022-08-19T01:44:12;13.60;;;13.60;;
11510;SDS011;5812;48.864;9.190;2022-08-19T01:46:39;14.23;;;14.23;;
11510;SDS011;5812;48.864;9.190;2022-08-19T01:49:05;14.05;;;14.05;;
11510;SDS011;5812;48.864;9.190;2022-08-19T01:51:31;14.13;;;14.13;;
11510;SDS011;5812;48.864;9.190;2022-08-19T01:53:57;14.38;;;14.38;;
11510;SDS011;5812;48.864;9.190;2022-08-19T01:56:23;15.05;;;15.05;;
11510;SDS011;5812;48.864;9.190;2022-08-19T01:58:58;15.48;;;15.38;;
11510;SDS011;5812;48.864;9.190;2022-08-19T02:01:28;15.00;;;15.00;;
11510;SDS011;5812;48.864;9.190;2022-08-19T02:03:56;14.88;;;14.88;;
11510;SDS011;5812;48.864;9.190;2022-08-19T02:06:23;16.13;;;16.13;;
11510;SDS011;5812;48.864;9.190;2022-08-19T02:08:49;15.95;;;15.85;;
11510;SDS011;5812;48.864;9.190;2022-08-19T02:11:22;15.38;;;15.30;;
11510;SDS011;5812;48.864;9.190;2022-08-19T02:13:51;16.92;;;16.92;;
11510;SDS011;5812;48.864;9.190;2022-08-19T02:16:17;15.30;;;15.25;;
11510;SDS011;5812;48.864;9.190;2022-08-19T02:18:44;16.55;;;16.55;;
11510;SDS011;5812;48.864;9.190;2022-08-19T02:21:13;14.93;;;14.93;;
11510;SDS011;5812;48.864;9.190;2022-08-19T02:23:42;17.08;;;16.98;;
11510;SDS011;5812;48.864;9.190;2022-08-19T02:26:09;15.80;;;15.80;;
11510;SDS011;5812;48.864;9.190;2022-08-19T02:28:34;16.63;;;16.60;;
11510;SDS011;5812;48.864;9.190;2022-08-19T02:31:01;15.45;;;15.45;;
11510;SDS011;5812;48.864;9.190;2022-08-19T02:33:27;16.08;;;15.98;;
11510;SDS011;5812;48.864;9.190;2022-08-19T02:35:53;17.38;;;17.27;;
11510;SDS011;5812;48.864;9.190;2022-08-19T02:38:19;17.60;;;17.50;;
11510;SDS011;5812;48.864;9.190;2022-08-19T02:40:52;18.15;;;18.05;;
11510;SDS011;5812;48.864;9.190;2022-08-19T02:43:20;17.67;;;17.58;;
11510;SDS011;5812;48.864;9.190;2022-08-19T02:45:47;17.95;;;17.85;;
11510;SDS011;5812;48.864;9.190;2022-08-19T02:48:17;18.70;;;18.60;;
11510;SDS011;5812;48.864;9.190;2022-08-19T02:50:44;18.27;;;18.17;;
11510;SDS011;5812;48.864;9.190;2022-08-19T02:53:11;17.98;;;17.88;;
11510;SDS011;5812;48.864;9.190;2022-08-19T02:55:42;18.45;;;18.35;;
11510;SDS011;5812;48.864;9.190;2022-08-19T02:58:09;19.35;;;19.25;;
11510;SDS011;5812;48.864;9.190;2022-08-19T03:00:35;18.80;;;18.70;;
11510;SDS011;5812;48.864;9.190;2022-08-19T03:03:00;17.40;;;17.40;;
11510;SDS011;5812;48.864;9.190;2022-08-19T03:05:26;19.08;;;18.98;;
11510;SDS011;5812;48.864;9.190;2022-08-19T03:07:52;18.88;;;18.77;;
11510;SDS011;5812;48.864;9.190;2022-08-19T03:10:18;18.67;;;18.58;;
11510;SDS011;5812;48.864;9.190;2022-08-19T03:12:43;20.15;;;20.05;;
11510;SDS011;5812;48.864;9.190;2022-08-19T03:15:11;18.65;;;18.55;;
11510;SDS011;5812;48.864;9.190;2022-08-19T03:17:36;18.88;;;18.77;;
11510;SDS011;5812;48.864;9.190;2022-08-19T03:20:03;19.85;;;19.75;;
11510;SDS011;5812;48.864;9.190;2022-08-19T03:22:29;19.88;;;19.77;;
11510;SDS011;5812;48.864;9.190;2022-08-19T03:24:54;20.08;;;19.98;;
11510;SDS011;5812;48.864;9.190;2022-08-19T03:27:21;20.65;;;20.55;;
11510;SDS011;5812;48.864;9.190;2022-08-19T03:29:47;20.30;;;20.20;;
11510;SDS011;5812;48.864;9.190;2022-08-19T03:32:13;20.77;;;20.67;;
11510;SDS011;5812;48.864;9.190;2022-08-19T03:34:38;20.27;;;20.17;;
11510;SDS011;5812;48.864;9.190;2022-08-19T03:37:05;22.17;;;22.08;;
11510;SDS011;5812;48.864;9.190;2022-08-19T03:39:33;21.63;;;21.52;;
11510;SDS011;5812;48.864;9.190;2022-08-19T03:42:00;19.50;;;19.40;;
11510;SDS011;5812;48.864;9.190;2022-08-19T03:44:27;20.92;;;20.83;;
11510;SDS011;5812;48.864;9.190;2022-08-19T03:46:56;21.08;;;20.98;;
11510;SDS011;5812;48.864;9.190;2022-08-19T03:49:23;21.60;;;21.50;;
11510;SDS011;5812;48.864;9.190;2022-08-19T03:51:51;20.75;;;20.65;;
11510;SDS011;5812;48.864;9.190;2022-08-19T03:54:19;21.23;;;21.13;;
11510;SDS011;5812;48.864;9.190;2022-08-19T03:56:48;21.45;;;21.35;;
11510;SDS011;5812;48.864;9.190;2022-08-19T03:59:16;21.75;;;21.65;;
11510;SDS011;5812;48.864;9.190;2022-08-19T04:01:49;22.20;;;22.10;;
11510;SDS011;5812;48.864;9.190;2022-08-19T04:04:15;20.90;;;20.80;;
11510;SDS011;5812;48.864;9.190;2022-08-19T04:06:41;20.42;;;20.33;;
11510;SDS011;5812;48.864;9.190;2022-08-19T04:09:09;20.77;;;20.67;;
11510;SDS011;5812;48.864;9.190;2022-08-19T04:11:40;20.63;;;20.52;;
11510;SDS011;5812;48.864;9.190;2022-08-19T04:14:09;21.33;;;21.23;;
11510;SDS011;5812;48.864;9.190;2022-08-19T04:16:38;22.15;;;22.05;;
11510;SDS011;5812;48.864;9.190;2022-08-19T04:19:04;22.15;;;22.05;;
11510;SDS011;5812;48.864;9.190;2022-08-19T04:21:30;21.35;;;21.25;;
11510;SDS011;5812;48.864;9.190;2022-08-19T04:23:56;22.83;;;22.73;;
11510;SDS011;5812;48.864;9.190;2022-08-19T04:26:23;21.67;;;21.58;;
11510;SDS011;5812;48.864;9.190;2022-08-19T04:28:53;22.00;;;21.90;;
11510;SDS011;5812;48.864;9.190;2022-08-19T04:31:20;22.15;;;22.05;;
11510;SDS011;5812;48.864;9.190;2022-08-19T04:33:51;22.42;;;22.33;;
11510;SDS011;5812;48.864;9.190;2022-08-19T04:36:28;21.42;;;21.33;;
11510;SDS011;5812;48.864;9.190;2022-08-19T04:38:56;22.67;;;22.58;;
11510;SDS011;5812;48.864;9.190;2022-08-19T04:41:24;22.05;;;21.95;;
11510;SDS011;5812;48.864;9.190;2022-08-19T04:44:08;21.55;;;21.45;;
11510;SDS011;5812;48.864;9.190;2022-08-19T04:46:34;23.20;;;23.10;;
11510;SDS011;5812;48.864;9.190;2022-08-19T04:49:00;21.50;;;21.40;;
11510;SDS011;5812;48.864;9.190;2022-08-19T04:51:27;21.40;;;21.30;;
11510;SDS011;5812;48.864;9.190;2022-08-19T04:53:56;21.67;;;21.58;;
11510;SDS011;5812;48.864;9.190;2022-08-19T04:56:22;22.38;;;22.27;;
11510;SDS011;5812;48.864;9.190;2022-08-19T04:58:51;21.25;;;21.15;;
11510;SDS011;5812;48.864;9.190;2022-08-19T05:01:20;22.02;;;21.92;;
11510;SDS011;5812;48.864;9.190;2022-08-19T05:03:48;21.58;;;21.48;;
11510;SDS011;5812;48.864;9.190;2022-08-19T05:06:14;21.17;;;21.08;;
11510;SDS011;5812;48.864;9.190;2022-08-19T05:08:43;21.35;;;21.25;;
11510;SDS011;5812;48.864;9.190;2022-08-19T05:13:39;21.42;;;21.33;;
11510;SDS011;5812;48.864;9.190;2022-08-19T05:16:05;21.88;;;21.77;;
11510;SDS011;5812;48.864;9.190;2022-08-19T05:18:31;22.13;;;22.02;;
11510;SDS011;5812;48.864;9.190;2022-08-19T05:21:17;21.95;;;21.85;;
11510;SDS011;5812;48.864;9.190;2022-08-19T05:24:03;22.30;;;22.20;;
11510;SDS011;5812;48.864;9.190;2022-08-19T05:26:34;20.88;;;20.77;;
11510;SDS011;5812;48.864;9.190;2022-08-19T05:29:01;22.80;;;22.70;;
11510;SDS011;5812;48.864;9.190;2022-08-19T05:31:27;23.10;;;23.00;;
11510;SDS011;5812;48.864;9.190;2022-08-19T05:33:52;21.90;;;21.80;;
11510;SDS011;5812;48.864;9.190;2022-08-19T05:36:18;23.33;;;23.23;;
11510;SDS011;5812;48.864;9.190;2022-08-19T05:38:44;21.45;;;21.35;;
11510;SDS011;5812;48.864;9.190;2022-08-19T05:41:12;23.25;;;23.15;;
11510;SDS011;5812;48.864;9.190;2022-08-19T05:43:40;21.55;;;21.45;;
11510;SDS011;5812;48.864;9.190;2022-08-19T05:46:06;22.23;;;22.13;;
11510;SDS011;5812;48.864;9.190;2022-08-19T05:48:33;21.75;;;21.65;;
11510;SDS011;5812;48.864;9.190;2022-08-19T05:51:03;21.92;;;21.83;;
11510;SDS011;5812;48.864;9.190;2022-08-19T05:53:31;21.83;;;21.73;;
11510;SDS011;5812;48.864;9.190;2022-08-19T05:55:57;22.95;;;22.85;;
11510;SDS011;5812;48.864;9.190;2022-08-19T05:58:22;23.13;;;23.02;;
11510;SDS011;5812;48.864;9.190;2022-08-19T06:00:49;22.38;;;22.27;;
11510;SDS011;5812;48.864;9.190;2022-08-19T06:03:16;21.10;;;21.00;;
11510;SDS011;5812;48.864;9.190;2022-08-19T06:05:42;21.52;;;21.42;;
11510;SDS011;5812;48.864;9.190;2022-08-19T06:08:07;21.73;;;21.63;;
11510;SDS011;5812;48.864;9.190;2022-08-19T06:10:33;22.35;;;22.25;;
11510;SDS011;5812;48.864;9.190;2022-08-19T06:12:58;23.02;;;22.92;;
11510;SDS011;5812;48.864;9.190;2022-08-19T06:15:24;21.17;;;21.08;;
11510;SDS011;5812;48.864;9.190;2022-08-19T06:17:50;22.80;;;22.70;;
11510;SDS011;5812;48.864;9.190;2022-08-19T06:20:16;20.83;;;20.73;;
11510;SDS011;5812;48.864;9.190;2022-08-19T06:22:44;22.02;;;21.92;;
11510;SDS011;5812;48.864;9.190;2022-08-19T06:25:11;21.90;;;21.80;;
11510;SDS011;5812;48.864;9.190;2022-08-19T06:27:39;21.17;;;21.08;;
11510;SDS011;5812;48.864;9.190;2022-08-19T06:30:06;21.02;;;20.92;;
11510;SDS011;5812;48.864;9.190;2022-08-19T06:32:32;21.00;;;20.90;;
11510;SDS011;5812;48.864;9.190;2022-08-19T06:34:58;21.17;;;21.08;;
11510;SDS011;5812;48.864;9.190;2022-08-19T06:37:23;21.65;;;21.55;;
11510;SDS011;5812;48.864;9.190;2022-08-19T06:39:49;22.02;;;21.92;;
11510;SDS011;5812;48.864;9.190;2022-08-19T06:42:15;20.45;;;20.35;;
11510;SDS011;5812;48.864;9.190;2022-08-19T06:44:44;21.77;;;21.67;;
11510;SDS011;5812;48.864;9.190;2022-08-19T06:47:13;22.75;;;22.65;;
11510;SDS011;5812;48.864;9.190;2022-08-19T06:49:40;23.35;;;23.25;;
11510;SDS011;5812;48.864;9.190;2022-08-19T06:52:06;23.63;;;23.52;;
11510;SDS011;5812;48.864;9.190;2022-08-19T06:54:33;24.63;;;24.52;;
11510;SDS011;5812;48.864;9.190;2022-08-19T06:56:59;23.90;;;23.80;;
11510;SDS011;5812;48.864;9.190;2022-08-19T06:59:29;24.17;;;24.08;;
11510;SDS011;5812;48.864;9.190;2022-08-19T07:01:58;25.00;;;24.90;;
11510;SDS011;5812;48.864;9.190;2022-08-19T07:04:27;23.52;;;23.42;;
11510;SDS011;5812;48.864;9.190;2022-08-19T07:07:00;23.05;;;22.95;;
11510;SDS011;5812;48.864;9.190;2022-08-19T07:09:28;23.63;;;23.52;;
11510;SDS011;5812;48.864;9.190;2022-08-19T07:11:54;23.63;;;23.52;;
11510;SDS011;5812;48.864;9.190;2022-08-19T07:14:22;22.83;;;22.73;;
11510;SDS011;5812;48.864;9.190;2022-08-19T07:16:51;21.45;;;21.35;;
11510;SDS011;5812;48.864;9.190;2022-08-19T07:19:19;21.20;;;21.10;;
11510;SDS011;5812;48.864;9.190;2022-08-19T07:21:45;21.92;;;21.83;;
11510;SDS011;5812;48.864;9.190;2022-08-19T07:24:12;21.65;;;21.55;;
11510;SDS011;5812;48.864;9.190;2022-08-19T07:26:39;23.05;;;22.95;;
11510;SDS011;5812;48.864;9.190;2022-08-19T07:29:07;21.10;;;21.00;;
11510;SDS011;5812;48.864;9.190;2022-08-19T07:31:34;20.98;;;20.88;;
11510;SDS011;5812;48.864;9.190;2022-08-19T07:34:03;20.83;;;20.73;;
11510;SDS011;5812;48.864;9.190;2022-08-19T07:36:31;20.63;;;20.52;;
11510;SDS011;5812;48.864;9.190;2022-08-19T07:38:58;20.20;;;20.10;;
11510;SDS011;5812;48.864;9.190;2022-08-19T07:41:26;19.25;;;19.15;;
11510;SDS011;5812;48.864;9.190;2022-08-19T07:43:53;19.35;;;19.25;;
11510;SDS011;5812;48.864;9.190;2022-08-19T07:46:20;19.40;;;19.30;;
11510;SDS011;5812;48.864;9.190;2022-08-19T07:48:46;19.92;;;19.83;;
11510;SDS011;5812;48.864;9.190;2022-08-19T07:51:15;18.15;;;18.05;;
11510;SDS011;5812;48.864;9.190;2022-08-19T07:53:45;18.20;;;18.10;;
11510;SDS011;5812;48.864;9.190;2022-08-19T07:56:12;17.98;;;17.88;;
11510;SDS011;5812;48.864;9.190;2022-08-19T07:58:39;16.83;;;16.77;;
11510;SDS011;5812;48.864;9.190;2022-08-19T08:01:07;17.90;;;17.80;;
11510;SDS011;5812;48.864;9.190;2022-08-19T08:03:36;18.02;;;18.02;;
11510;SDS011;5812;48.864;9.190;2022-08-19T08:06:21;17.83;;;17.73;;
11510;SDS011;5812;48.864;9.190;2022-08-19T08:09:25;17.73;;;17.67;;
11510;SDS011;5812;48.864;9.190;2022-08-19T08:11:55;18.85;;;18.77;;
11510;SDS011;5812;48.864;9.190;2022-08-19T08:14:33;18.40;;;18.30;;
11510;SDS011;5812;48.864;9.190;2022-08-19T08:17:12;18.80;;;18.70;;
11510;SDS011;5812;48.864;9.190;2022-08-19T08:19:39;18.33;;;18.33;;
11510;SDS011;5812;48.864;9.190;2022-08-19T08:22:08;17.23;;;17.13;;
11510;SDS011;5812;48.864;9.190;2022-08-19T08:25:15;17.38;;;17.38;;
11510;SDS011;5812;48.864;9.190;2022-08-19T08:27:45;19.70;;;19.60;;
11510;SDS011;5812;48.864;9.190;2022-08-19T08:30:16;21.30;;;21.20;;
11510;SDS011;5812;48.864;9.190;2022-08-19T08:32:43;20.02;;;19.92;;
11510;SDS011;5812;48.864;9.190;2022-08-19T08:35:11;21.58;;;21.48;;
11510;SDS011;5812;48.864;9.190;2022-08-19T08:37:38;19.50;;;19.45;;
11510;SDS011;5812;48.864;9.190;2022-08-19T08:40:05;20.33;;;20.23;;
11510;SDS011;5812;48.864;9.190;2022-08-19T08:42:36;19.92;;;19.83;;
11510;SDS011;5812;48.864;9.190;2022-08-19T08:45:12;20.20;;;20.10;;
11510;SDS011;5812;48.864;9.190;2022-08-19T08:47:41;20.42;;;20.33;;
11510;SDS011;5812;48.864;9.190;2022-08-19T08:53:06;20.35;;;20.25;;
11510;SDS011;5812;48.864;9.190;2022-08-19T08:55:33;19.63;;;19.52;;
11510;SDS011;5812;48.864;9.190;2022-08-19T09:00:38;18.20;;;18.20;;
11510;SDS011;5812;48.864;9.190;2022-08-19T09:03:19;19.08;;;18.98;;
11510;SDS011;5812;48.864;9.190;2022-08-19T09:06:00;18.75;;;18.65;;
11510;SDS011;5812;48.864;9.190;2022-08-19T09:08:48;16.60;;;16.60;;
11510;SDS011;5812;48.864;9.190;2022-08-19T09:11:47;17.90;;;17.80;;
11510;SDS011;5812;48.864;9.190;2022-08-19T09:17:15;16.30;;;16.30;;
11510;SDS011;5812;48.864;9.190;2022-08-19T09:19:54;16.35;;;16.25;;
11510;SDS011;5812;48.864;9.190;2022-08-19T09:22:31;15.38;;;15.38;;
11510;SDS011;5812;48.864;9.190;2022-08-19T09:24:57;15.07;;;15.07;;
11510;SDS011;5812;48.864;9.190;2022-08-19T09:27:23;15.40;;;15.40;;
11510;SDS011;5812;48.864;9.190;2022-08-19T09:29:50;14.52;;;14.43;;
11510;SDS011;5812;48.864;9.190;2022-08-19T09:32:18;14.27;;;14.27;;
11510;SDS011;5812;48.864;9.190;2022-08-19T09:34:45;14.68;;;14.68;;
11510;SDS011;5812;48.864;9.190;2022-08-19T09:37:10;14.75;;;14.65;;
11510;SDS011;5812;48.864;9.190;2022-08-19T09:39:37;14.75;;;14.65;;
11510;SDS011;5812;48.864;9.190;2022-08-19T09:42:03;13.18;;;13.18;;
11510;SDS011;5812;48.864;9.190;2022-08-19T09:44:29;12.48;;;12.48;;
11510;SDS011;5812;48.864;9.190;2022-08-19T09:46:55;12.90;;;12.90;;
11510;SDS011;5812;48.864;9.190;2022-08-19T09:49:21;13.27;;;13.27;;
11510;SDS011;5812;48.864;9.190;2022-08-19T09:51:50;13.52;;;13.52;;
11510;SDS011;5812;48.864;9.190;2022-08-19T09:54:19;13.35;;;13.35;;
11510;SDS011;5812;48.864;9.190;2022-08-19T09:56:44;12.57;;;12.57;;
11510;SDS011;5812;48.864;9.190;2022-08-19T09:59:10;13.02;;;13.02;;
11510;SDS011;5812;48.864;9.190;2022-08-19T10:01:37;12.82;;;12.82;;
11510;SDS011;5812;48.864;9.190;2022-08-19T10:04:03;11.90;;;11.90;;
11510;SDS011;5812;48.864;9.190;2022-08-19T10:06:33;11.48;;;11.48;;
11510;SDS011;5812;48.864;9.190;2022-08-19T10:09:00;12.77;;;12.77;;
11510;SDS011;5812;48.864;9.190;2022-08-19T10:11:29;11.73;;;11.73;;
11510;SDS011;5812;48.864;9.190;2022-08-19T10:13:54;11.27;;;11.27;;
11510;SDS011;5812;48.864;9.190;2022-08-19T10:16:21;11.30;;;11.30;;
11510;SDS011;5812;48.864;9.190;2022-08-19T10:18:48;11.82;;;11.82;;
11510;SDS011;5812;48.864;9.190;2022-08-19T10:21:16;11.75;;;11.75;;
11510;SDS011;5812;48.864;9.190;2022-08-19T10:23:44;11.32;;;11.32;;
11510;SDS011;5812;48.864;9.190;2022-08-19T10:26:16;11.15;;;11.15;;
11510;SDS011;5812;48.864;9.190;2022-08-19T10:28:46;11.13;;;11.13;;
11510;SDS011;5812;48.864;9.190;2022-08-19T10:31:13;11.98;;;11.98;;
11510;SDS011;5812;48.864;9.190;2022-08-19T10:33:42;10.52;;;10.52;;
11510;SDS011;5812;48.864;9.190;2022-08-19T10:36:09;10.07;;;10.07;;
11510;SDS011;5812;48.864;9.190;2022-08-19T10:38:40;9.80;;;9.80;;
11510;SDS011;5812;48.864;9.190;2022-08-19T10:41:10;9.00;;;9.00;;
11510;SDS011;5812;48.864;9.190;2022-08-19T10:43:44;9.27;;;9.27;;
11510;SDS011;5812;48.864;9.190;2022-08-19T10:46:11;9.27;;;9.27;;
11510;SDS011;5812;48.864;9.190;2022-08-19T10:48:39;8.65;;;8.65;;
11510;SDS011;5812;48.864;9.190;2022-08-19T10:51:05;8.15;;;8.15;;
11510;SDS011;5812;48.864;9.190;2022-08-19T10:53:50;7.22;;;7.22;;
11510;SDS011;5812;48.864;9.190;2022-08-19T10:56:16;7.32;;;7.32;;
11510;SDS011;5812;48.864;9.190;2022-08-19T10:59:01;6.93;;;6.93;;
11510;SDS011;5812;48.864;9.190;2022-08-19T11:01:28;6.43;;;6.43;;
11510;SDS011;5812;48.864;9.190;2022-08-19T11:03:55;6.88;;;6.88;;
11510;SDS011;5812;48.864;9.190;2022-08-19T11:06:22;6.63;;;6.63;;
11510;SDS011;5812;48.864;9.190;2022-08-19T11:08:49;6.47;;;6.47;;
11510;SDS011;5812;48.864;9.190;2022-08-19T11:11:15;6.43;;;6.43;;
11510;SDS011;5812;48.864;9.190;2022-08-19T11:13:42;6.45;;;6.45;;
11510;SDS011;5812;48.864;9.190;2022-08-19T11:18:40;6.53;;;6.53;;
11510;SDS011;5812;48.864;9.190;2022-08-19T11:21:13;7.00;;;7.00;;
11510;SDS011;5812;48.864;9.190;2022-08-19T11:23:44;6.05;;;6.05;;
11510;SDS011;5812;48.864;9.190;2022-08-19T11:26:11;6.40;;;6.40;;
11510;SDS011;5812;48.864;9.190;2022-08-19T11:28:38;6.53;;;6.53;;
11510;SDS011;5812;48.864;9.190;2022-08-19T11:31:04;6.10;;;6.10;;
11510;SDS011;5812;48.864;9.190;2022-08-19T11:33:35;6.55;;;6.55;;
11510;SDS011;5812;48.864;9.190;2022-08-19T11:36:01;6.40;;;6.40;;
11510;SDS011;5812;48.864;9.190;2022-08-19T11:38:27;6.95;;;6.95;;
11510;SDS011;5812;48.864;9.190;2022-08-19T11:40:59;7.05;;;7.05;;
11510;SDS011;5812;48.864;9.190;2022-08-19T11:43:28;6.03;;;6.03;;
11510;SDS011;5812;48.864;9.190;2022-08-19T11:45:56;7.05;;;7.05;;
11510;SDS011;5812;48.864;9.190;2022-08-19T11:48:23;6.18;;;6.18;;
11510;SDS011;5812;48.864;9.190;2022-08-19T11:50:50;5.68;;;5.68;;
11510;SDS011;5812;48.864;9.190;2022-08-19T11:53:20;5.93;;;5.93;;
11510;SDS011;5812;48.864;9.190;2022-08-19T11:55:46;7.07;;;7.07;;
11510;SDS011;5812;48.864;9.190;2022-08-19T11:58:13;6.55;;;6.55;;
11510;SDS011;5812;48.864;9.190;2022-08-19T12:00:41;6.72;;;6.72;;
11510;SDS011;5812;48.864;9.190;2022-08-19T12:03:07;7.50;;;7.50;;
11510;SDS011;5812;48.864;9.190;2022-08-19T12:05:33;7.40;;;7.40;;
11510;SDS011;5812;48.864;9.190;2022-08-19T12:08:02;6.97;;;6.97;;
11510;SDS011;5812;48.864;9.190;2022-08-19T12:10:27;7.55;;;7.55;;
11510;SDS011;5812;48.864;9.190;2022-08-19T12:12:53;7.50;;;7.50;;
11510;SDS011;5812;48.864;9.190;2022-08-19T12:15:19;6.68;;;6.68;;
11510;SDS011;5812;48.864;9.190;2022-08-19T12:17:45;7.57;;;7.57;;
11510;SDS011;5812;48.864;9.190;2022-08-19T12:20:11;7.75;;;7.75;;
11510;SDS011;5812;48.864;9.190;2022-08-19T12:22:38;7.70;;;7.70;;
11510;SDS011;5812;48.864;9.190;2022-08-19T12:25:09;6.45;;;6.45;;
11510;SDS011;5812;48.864;9.190;2022-08-19T12:27:36;7.32;;;7.32;;
11510;SDS011;5812;48.864;9.190;2022-08-19T12:30:02;7.43;;;7.43;;
11510;SDS011;5812;48.864;9.190;2022-08-19T12:32:29;7.50;;;7.50;;
11510;SDS011;5812;48.864;9.190;2022-08-19T12:34:54;6.75;;;6.75;;
11510;SDS011;5812;48.864;9.190;2022-08-19T12:37:20;6.93;;;6.93;;
11510;SDS011;5812;48.864;9.190;2022-08-19T12:39:46;6.60;;;6.60;;
11510;SDS011;5812;48.864;9.190;2022-08-19T12:42:14;6.68;;;6.68;;
11510;SDS011;5812;48.864;9.190;2022-08-19T12:44:41;5.88;;;5.88;;
11510;SDS011;5812;48.864;9.190;2022-08-19T12:47:08;5.63;;;5.63;;
11510;SDS011;5812;48.864;9.190;2022-08-19T12:49:36;5.80;;;5.80;;
11510;SDS011;5812;48.864;9.190;2022-08-19T12:52:04;5.47;;;5.47;;
11510;SDS011;5812;48.864;9.190;2022-08-19T12:54:32;5.60;;;5.60;;
11510;SDS011;5812;48.864;9.190;2022-08-19T12:56:58;5.32;;;5.32;;
11510;SDS011;5812;48.864;9.190;2022-08-19T12:59:24;5.60;;;5.60;;
11510;SDS011;5812;48.864;9.190;2022-08-19T13:01:51;5.60;;;5.60;;
11510;SDS011;5812;48.864;9.190;2022-08-19T13:04:16;5.55;;;5.55;;
11510;SDS011;5812;48.864;9.190;2022-08-19T13:06:42;5.63;;;5.63;;
11510;SDS011;5812;48.864;9.190;2022-08-19T13:09:08;5.30;;;5.30;;
11510;SDS011;5812;48.864;9.190;2022-08-19T13:11:34;4.90;;;4.90;;
11510;SDS011;5812;48.864;9.190;2022-08-19T13:14:01;4.93;;;4.93;;
11510;SDS011;5812;48.864;9.190;2022-08-19T13:16:28;5.05;;;5.05;;
11510;SDS011;5812;48.864;9.190;2022-08-19T13:18:54;5.50;;;5.50;;
11510;SDS011;5812;48.864;9.190;2022-08-19T13:21:22;5.10;;;5.10;;
11510;SDS011;5812;48.864;9.190;2022-08-19T13:23:50;4.97;;;4.97;;
11510;SDS011;5812;48.864;9.190;2022-08-19T13:26:16;4.70;;;4.70;;
11510;SDS011;5812;48.864;9.190;2022-08-19T13:28:42;6.47;;;6.47;;
11510;SDS011;5812;48.864;9.190;2022-08-19T13:31:30;13.85;;;13.85;;
11510;SDS011;5812;48.864;9.190;2022-08-19T13:34:17;16.42;;;16.42;;
11510;SDS011;5812;48.864;9.190;2022-08-19T13:36:44;17.13;;;17.02;;
11510;SDS011;5812;48.864;9.190;2022-08-19T13:39:10;17.00;;;16.98;;
11510;SDS011;5812;48.864;9.190;2022-08-19T13:41:37;17.92;;;17.83;;
11510;SDS011;5812;48.864;9.190;2022-08-19T13:44:12;17.75;;;17.65;;
11510;SDS011;5812;48.864;9.190;2022-08-19T13:46:40;18.60;;;18.50;;
11510;SDS011;5812;48.864;9.190;2022-08-19T13:49:09;20.55;;;20.45;;
11510;SDS011;5812;48.864;9.190;2022-08-19T13:51:37;21.17;;;21.08;;
11510;SDS011;5812;48.864;9.190;2022-08-19T13:54:04;22.88;;;22.77;;
11510;SDS011;5812;48.864;9.190;2022-08-19T13:56:31;21.67;;;21.58;;
11510;SDS011;5812;48.864;9.190;2022-08-19T13:58:56;23.90;;;23.80;;
11510;SDS011;5812;48.864;9.190;2022-08-19T14:01:23;25.23;;;25.13;;
11510;SDS011;5812;48.864;9.190;2022-08-19T14:03:49;26.02;;;25.92;;
11510;SDS011;5812;48.864;9.190;2022-08-19T14:06:14;26.23;;;26.13;;
11510;SDS011;5812;48.864;9.190;2022-08-19T14:08:41;28.63;;;28.52;;
11510;SDS011;5812;48.864;9.190;2022-08-19T14:11:08;27.13;;;27.02;;
11510;SDS011;5812;48.864;9.190;2022-08-19T14:13:34;27.40;;;27.30;;
11510;SDS011;5812;48.864;9.190;2022-08-19T14:15:59;29.48;;;29.38;;
11510;SDS011;5812;48.864;9.190;2022-08-19T14:18:25;30.35;;;30.25;;
11510;SDS011;5812;48.864;9.190;2022-08-19T14:20:51;31.63;;;31.42;;
11510;SDS011;5812;48.864;9.190;2022-08-19T14:23:17;31.17;;;31.08;;
11510;SDS011;5812;48.864;9.190;2022-08-19T14:25:43;29.67;;;29.58;;
11510;SDS011;5812;48.864;9.190;2022-08-19T14:28:09;29.90;;;29.80;;
11510;SDS011;5812;48.864;9.190;2022-08-19T14:30:35;29.73;;;29.63;;
11510;SDS011;5812;48.864;9.190;2022-08-19T14:33:02;28.63;;;28.52;;
11510;SDS011;5812;48.864;9.190;2022-08-19T14:35:30;30.73;;;30.63;;
11510;SDS011;5812;48.864;9.190;2022-08-19T14:38:01;28.60;;;28.50;;
11510;SDS011;5812;48.864;9.190;2022-08-19T14:40:28;29.95;;;29.85;;
11510;SDS011;5812;48.864;9.190;2022-08-19T14:42:56;29.38;;;29.27;;
11510;SDS011;5812;48.864;9.190;2022-08-19T14:45:26;30.48;;;30.38;;
11510;SDS011;5812;48.864;9.190;2022-08-19T14:47:53;29.42;;;29.33;;
11510;SDS011;5812;48.864;9.190;2022-08-19T14:50:19;30.15;;;30.05;;
11510;SDS011;5812;48.864;9.190;2022-08-19T14:52:45;29.83;;;29.73;;
11510;SDS011;5812;48.864;9.190;2022-08-19T14:55:16;27.95;;;27.85;;
11510;SDS011;5812;48.864;9.190;2022-08-19T14:57:43;28.55;;;28.45;;
11510;SDS011;5812;48.864;9.190;2022-08-19T15:00:09;28.33;;;28.23;;